createdAt,value
2018-11-20T00:02:01.516Z,15.17
2018-11-20T00:04:54.973Z,14.40
2018-11-20T00:07:45.303Z,13.20
2018-11-20T00:10:33.050Z,14.17
2018-11-20T00:13:13.906Z,13.97
2018-11-20T00:15:59.879Z,14.80
2018-11-20T00:18:43.420Z,14.20
2018-11-20T00:22:15.060Z,16.43
2018-11-20T00:25:00.648Z,15.33
2018-11-20T00:27:50.048Z,15.83
2018-11-20T00:30:45.914Z,15.80
2018-11-20T00:33:31.697Z,16.40
2018-11-20T00:36:33.628Z,16.63
2018-11-20T00:39:25.970Z,14.80
2018-11-20T00:42:12.803Z,16.27
2018-11-20T00:45:11.079Z,16.77
2018-11-20T00:47:56.518Z,15.70
2018-11-20T00:50:55.202Z,16.20
2018-11-20T00:53:47.813Z,16.27
2018-11-20T00:56:57.578Z,17.27
2018-11-20T00:59:52.195Z,16.97
2018-11-20T01:02:57.173Z,15.67
2018-11-20T01:05:46.527Z,16.20
2018-11-20T01:08:35.876Z,14.83
2018-11-20T01:11:21.273Z,16.80
2018-11-20T01:14:06.101Z,17.17
2018-11-20T01:16:51.452Z,16.77
2018-11-20T01:19:47.008Z,17.97
2018-11-20T01:22:42.676Z,17.00
2018-11-20T01:25:28.389Z,17.17
2018-11-20T01:28:17.953Z,16.83
2018-11-20T01:31:03.210Z,17.57
2018-11-20T01:33:49.885Z,17.60
2018-11-20T01:36:25.297Z,18.03
2018-11-20T01:39:30.298Z,18.07
2018-11-20T01:42:16.062Z,16.00
2018-11-20T01:44:59.940Z,17.97
2018-11-20T01:47:36.296Z,17.60
2018-11-20T01:50:29.106Z,17.57
2018-11-20T01:53:14.470Z,17.47
2018-11-20T01:56:16.179Z,18.83
2018-11-20T01:59:02.905Z,17.63
2018-11-20T02:01:55.792Z,19.07
2018-11-20T02:04:41.108Z,18.17
2018-11-20T02:07:29.928Z,17.93
2018-11-20T02:10:15.449Z,18.17
2018-11-20T02:13:49.347Z,17.97
2018-11-20T02:16:42.563Z,15.67
2018-11-20T02:19:27.840Z,16.63
2018-11-20T02:22:12.760Z,16.43
2018-11-20T02:24:57.931Z,17.50
2018-11-20T02:27:41.367Z,17.77
2018-11-20T02:30:28.030Z,18.13
2018-11-20T02:33:13.572Z,17.53
2018-11-20T02:35:54.328Z,18.07
2018-11-20T02:38:46.879Z,18.07
2018-11-20T02:41:35.137Z,17.30
2018-11-20T02:44:13.232Z,17.07
2018-11-20T02:47:08.809Z,16.73
2018-11-20T02:49:54.248Z,16.77
2018-11-20T02:52:47.135Z,15.80
2018-11-20T02:55:32.647Z,16.67
2018-11-20T02:58:25.213Z,16.97
2018-11-20T03:01:07.936Z,17.07
2018-11-20T03:04:00.388Z,16.20
2018-11-20T03:07:02.361Z,16.50
2018-11-20T03:09:37.598Z,15.83
2018-11-20T03:12:30.346Z,16.83
2018-11-20T03:15:15.807Z,17.40
2018-11-20T03:18:02.418Z,16.37
2018-11-20T03:20:49.051Z,15.93
2018-11-20T03:23:34.473Z,17.73
2018-11-20T03:26:25.058Z,16.80
2018-11-20T03:29:37.474Z,17.07
2018-11-20T03:32:19.043Z,16.90
2018-11-20T03:35:04.330Z,16.90
2018-11-20T03:37:51.658Z,17.53
2018-11-20T03:40:44.077Z,16.93
2018-11-20T03:43:18.798Z,16.67
2018-11-20T03:46:05.427Z,18.60
2018-11-20T03:49:01.176Z,17.10
2018-11-20T03:51:46.659Z,16.67
2018-11-20T03:54:31.985Z,17.23
2018-11-20T03:57:14.691Z,17.83
2018-11-20T04:00:01.050Z,16.60
2018-11-20T04:02:46.646Z,17.67
2018-11-20T04:05:38.415Z,17.33
2018-11-20T04:08:19.769Z,17.43
2018-11-20T04:10:59.441Z,16.43
2018-11-20T04:13:44.898Z,17.43
2018-11-20T04:16:30.175Z,18.63
2018-11-20T04:19:19.631Z,16.60
2018-11-20T04:21:58.674Z,17.73
2018-11-20T04:24:44.256Z,17.73
2018-11-20T04:27:29.466Z,17.00
2018-11-20T04:30:47.379Z,17.03
2018-11-20T04:34:12.193Z,18.40
2018-11-20T04:37:04.871Z,17.30
2018-11-20T04:39:54.343Z,17.20
2018-11-20T04:42:53.185Z,17.60
2018-11-20T04:45:38.495Z,17.13
2018-11-20T04:48:12.797Z,17.93
2018-11-20T04:51:05.561Z,16.30
2018-11-20T04:53:56.132Z,16.00
2018-11-20T04:56:41.181Z,17.33
2018-11-20T04:59:26.373Z,17.23
2018-11-20T05:02:28.073Z,18.03
2018-11-20T05:05:05.495Z,16.83
2018-11-20T05:07:46.033Z,17.50
2018-11-20T05:10:27.814Z,17.47
2018-11-20T05:13:09.479Z,16.10
2018-11-20T05:15:54.830Z,17.00
2018-11-20T05:18:48.322Z,18.47
2018-11-20T05:21:55.825Z,16.37
2018-11-20T05:24:48.709Z,17.80
2018-11-20T05:27:27.219Z,17.73
2018-11-20T05:30:16.536Z,23.20
2018-11-20T05:33:18.436Z,18.33
2018-11-20T05:36:23.420Z,19.40
2018-11-20T05:39:08.725Z,18.23
2018-11-20T05:41:58.003Z,17.73
2018-11-20T05:44:43.356Z,16.43
2018-11-20T05:47:32.717Z,18.00
2018-11-20T05:50:21.984Z,18.33
2018-11-20T05:53:01.339Z,20.03
2018-11-20T05:55:47.185Z,19.47
2018-11-20T05:58:33.832Z,19.83
2018-11-20T06:01:32.870Z,19.93
2018-11-20T06:04:10.392Z,20.30
2018-11-20T06:07:02.779Z,19.10
2018-11-20T06:09:44.951Z,16.50
2018-11-20T06:12:30.474Z,18.53
2018-11-20T06:15:32.287Z,20.50
2018-11-20T06:18:17.965Z,17.23
2018-11-20T06:21:19.707Z,18.87
2018-11-20T06:24:05.135Z,17.70
2018-11-20T06:26:50.417Z,17.63
2018-11-20T06:29:35.669Z,17.97
2018-11-20T06:32:15.649Z,19.27
2018-11-20T06:35:02.426Z,17.53
2018-11-20T06:37:46.854Z,18.83
2018-11-20T06:40:32.089Z,17.97
2018-11-20T06:43:30.786Z,18.90
2018-11-20T06:46:23.347Z,19.63
2018-11-20T06:48:57.645Z,20.97
2018-11-20T06:51:53.365Z,19.83
2018-11-20T06:54:33.327Z,19.77
2018-11-20T06:57:13.593Z,20.00
2018-11-20T07:00:06.076Z,20.33
2018-11-20T07:02:44.583Z,20.67
2018-11-20T07:05:19.869Z,19.73
2018-11-20T07:07:56.115Z,18.93
2018-11-20T07:10:51.674Z,18.63
2018-11-20T07:13:40.719Z,19.50
2018-11-20T07:16:40.302Z,18.80
2018-11-20T07:19:33.064Z,19.33
2018-11-20T07:22:19.752Z,18.97
2018-11-20T07:25:01.129Z,19.63
2018-11-20T07:27:39.605Z,18.73
2018-11-20T07:30:20.910Z,18.83
2018-11-20T07:33:06.289Z,20.30
2018-11-20T07:35:39.907Z,19.50
2018-11-20T07:38:41.822Z,18.73
2018-11-20T07:41:16.023Z,21.60
2018-11-20T07:44:01.598Z,20.97
2018-11-20T07:46:48.203Z,20.87
2018-11-20T07:49:40.868Z,20.63
2018-11-20T07:52:26.411Z,18.70
2018-11-20T07:55:11.811Z,19.80
2018-11-20T07:57:58.433Z,20.93
2018-11-20T08:00:43.645Z,19.97
2018-11-20T08:03:39.363Z,18.57
2018-11-20T08:06:25.505Z,20.17
2018-11-20T08:09:10.823Z,19.87
2018-11-20T08:12:05.370Z,19.63
2018-11-20T08:14:58.027Z,19.20
2018-11-20T08:17:40.899Z,19.77
2018-11-20T08:20:46.001Z,20.83
2018-11-20T08:23:20.408Z,19.93
2018-11-20T08:26:16.205Z,20.30
2018-11-20T08:28:56.027Z,19.00
2018-11-20T08:31:44.035Z,20.57
2018-11-20T08:34:33.495Z,19.57
2018-11-20T08:37:07.041Z,20.10
2018-11-20T08:40:02.653Z,20.57
2018-11-20T08:42:47.628Z,21.27
2018-11-20T08:45:32.834Z,18.40
2018-11-20T08:48:18.182Z,19.97
2018-11-20T08:51:07.447Z,18.70
2018-11-20T08:53:43.640Z,19.67
2018-11-20T08:56:30.288Z,20.77
2018-11-20T08:59:19.936Z,20.10
2018-11-20T09:02:15.584Z,19.47
2018-11-20T09:05:11.167Z,18.67
2018-11-20T09:08:10.114Z,19.10
2018-11-20T09:11:09.059Z,20.60
2018-11-20T09:13:54.603Z,18.87
2018-11-20T09:16:40.110Z,19.37
2018-11-20T09:19:21.859Z,19.00
2018-11-20T09:22:07.620Z,19.17
2018-11-20T09:24:45.832Z,18.93
2018-11-20T09:27:31.268Z,19.97
2018-11-20T09:30:29.848Z,19.73
2018-11-20T09:33:16.470Z,20.33
2018-11-20T09:35:55.795Z,19.80
2018-11-20T09:38:42.418Z,20.03
2018-11-20T09:41:27.914Z,19.97
2018-11-20T09:44:29.567Z,19.40
2018-11-20T09:47:16.269Z,20.00
2018-11-20T09:50:01.838Z,18.90
2018-11-20T09:52:48.524Z,20.17
2018-11-20T09:55:33.949Z,21.03
2018-11-20T09:58:24.766Z,19.13
2018-11-20T10:01:26.407Z,19.60
2018-11-20T10:04:11.931Z,19.77
2018-11-20T10:06:57.187Z,20.33
2018-11-20T10:10:01.902Z,19.20
2018-11-20T10:12:41.636Z,19.63
2018-11-20T10:15:37.303Z,20.63
2018-11-20T10:18:23.014Z,20.03
2018-11-20T10:21:08.220Z,19.70
2018-11-20T10:24:06.619Z,19.93
2018-11-20T10:26:52.670Z,18.60
2018-11-20T10:29:55.998Z,20.23
2018-11-20T10:32:41.351Z,20.07
2018-11-20T10:35:26.487Z,18.93
2018-11-20T10:38:15.863Z,19.37
2018-11-20T10:41:09.642Z,18.87
2018-11-20T10:43:55.227Z,19.80
2018-11-20T10:46:40.915Z,18.40
2018-11-20T10:49:27.497Z,20.43
2018-11-20T10:52:29.252Z,21.47
2018-11-20T10:55:14.744Z,18.00
2018-11-20T10:58:07.199Z,18.43
2018-11-20T11:00:52.461Z,19.13
2018-11-20T11:03:44.993Z,19.07
2018-11-20T11:06:31.581Z,18.47
2018-11-20T11:09:17.143Z,19.30
2018-11-20T11:11:59.461Z,20.53
2018-11-20T11:14:58.351Z,18.53
2018-11-20T11:17:47.820Z,20.07
2018-11-20T11:20:34.544Z,19.63
2018-11-20T11:23:19.915Z,19.33
2018-11-20T11:26:05.436Z,20.00
2018-11-20T11:28:55.610Z,19.90
2018-11-20T11:31:41.081Z,21.07
2018-11-20T11:34:26.350Z,19.10
2018-11-20T11:37:09.025Z,19.80
2018-11-20T11:39:46.216Z,18.70
2018-11-20T11:42:51.246Z,19.40
2018-11-20T11:45:36.066Z,19.37
2018-11-20T11:48:27.072Z,19.57
2018-11-20T11:51:05.001Z,24.97
2018-11-20T11:54:06.708Z,20.57
2018-11-20T11:56:59.072Z,20.07
2018-11-20T12:00:00.749Z,20.10
2018-11-20T12:05:33.059Z,19.03
2018-11-20T12:08:16.079Z,20.57
2018-11-20T12:11:03.813Z,19.60
2018-11-20T12:13:49.365Z,19.23
2018-11-20T12:16:34.708Z,19.53
2018-11-20T12:19:19.924Z,20.17
2018-11-20T12:22:05.179Z,17.13
2018-11-20T12:24:50.434Z,19.90
2018-11-20T12:27:38.168Z,19.20
2018-11-20T12:30:21.780Z,19.63
2018-11-20T12:33:11.075Z,19.43
2018-11-20T12:36:14.228Z,20.13
2018-11-20T12:39:00.340Z,19.07
2018-11-20T12:41:48.740Z,19.43
2018-11-20T12:44:36.649Z,19.93
2018-11-20T12:47:21.034Z,20.57
2018-11-20T12:50:01.114Z,19.77
2018-11-20T12:52:54.926Z,20.27
2018-11-20T12:55:41.544Z,18.53
2018-11-20T12:58:37.197Z,19.63
2018-11-20T13:01:22.927Z,17.80
2018-11-20T13:04:21.626Z,20.17
2018-11-20T13:07:07.233Z,19.07
2018-11-20T13:09:52.477Z,19.40
2018-11-20T13:12:37.718Z,17.97
2018-11-20T13:15:16.631Z,29.00
2018-11-20T13:18:03.571Z,20.37
2018-11-20T13:21:04.768Z,18.63
2018-11-20T13:23:50.935Z,16.23
2018-11-20T13:26:33.348Z,15.50
2018-11-20T13:29:18.680Z,13.53
2018-11-20T13:31:56.607Z,13.47
2018-11-20T13:34:41.652Z,12.50
2018-11-20T13:37:26.991Z,12.73
2018-11-20T13:40:28.685Z,11.77
2018-11-20T13:43:08.896Z,10.93
2018-11-20T13:45:54.701Z,13.03
2018-11-20T13:48:51.862Z,11.37
2018-11-20T13:51:26.585Z,12.97
2018-11-20T13:54:11.897Z,11.73
2018-11-20T13:56:58.497Z,10.93
2018-11-20T13:59:52.099Z,11.60
2018-11-20T14:02:36.252Z,11.40
2018-11-20T14:05:21.453Z,11.60
2018-11-20T14:08:08.626Z,12.37
2018-11-20T14:10:55.241Z,12.37
2018-11-20T14:13:34.632Z,11.67
2018-11-20T14:16:19.861Z,11.53
2018-11-20T14:19:05.093Z,11.40
2018-11-20T14:21:58.957Z,12.40
2018-11-20T14:24:43.369Z,11.93
2018-11-20T14:27:49.072Z,12.33
2018-11-20T14:30:36.708Z,11.70
2018-11-20T14:33:32.182Z,11.83
2018-11-20T14:36:11.064Z,12.57
2018-11-20T14:38:56.567Z,12.67
2018-11-20T14:41:54.728Z,13.03
2018-11-20T14:44:50.440Z,13.60
2018-11-20T14:47:36.021Z,11.47
2018-11-20T14:50:32.593Z,12.03
2018-11-20T14:53:19.211Z,12.63
2018-11-20T14:56:04.624Z,13.43
2018-11-20T14:59:00.149Z,12.93
2018-11-20T15:01:42.957Z,15.77
2018-11-20T15:04:28.207Z,14.07
2018-11-20T15:07:14.182Z,16.30
2018-11-20T15:09:57.869Z,15.67
2018-11-20T15:12:32.625Z,14.27
2018-11-20T15:15:15.657Z,13.67
2018-11-20T15:18:17.604Z,16.30
2018-11-20T15:20:57.921Z,16.67
2018-11-20T15:23:43.465Z,17.07
2018-11-20T15:26:28.798Z,16.50
2018-11-20T15:29:13.973Z,16.50
2018-11-20T15:32:01.689Z,15.80
2018-11-20T15:34:47.004Z,16.03
2018-11-20T15:37:48.735Z,15.90
2018-11-20T15:40:41.305Z,15.97
2018-11-20T15:43:26.527Z,18.33
2018-11-20T15:46:15.938Z,20.50
2018-11-20T15:49:05.475Z,19.40
2018-11-20T15:52:04.434Z,17.37
2018-11-20T15:55:09.193Z,16.30
2018-11-20T15:58:05.106Z,17.00
2018-11-20T16:01:03.839Z,19.13
2018-11-20T16:03:46.663Z,16.57
2018-11-20T16:06:36.326Z,17.07
2018-11-20T16:09:28.152Z,17.10
2018-11-20T16:12:11.164Z,17.50
2018-11-20T16:15:16.131Z,16.43
2018-11-20T16:18:01.300Z,16.40
2018-11-20T16:21:03.557Z,18.57
2018-11-20T16:23:55.916Z,18.67
2018-11-20T16:26:54.578Z,16.73
2018-11-20T16:29:41.296Z,17.43
2018-11-20T16:32:26.852Z,18.47
2018-11-20T16:35:04.781Z,19.63
2018-11-20T16:37:54.190Z,18.93
2018-11-20T16:40:39.837Z,19.20
2018-11-20T16:43:41.749Z,18.17
2018-11-20T16:46:27.134Z,20.27
2018-11-20T16:49:01.542Z,19.10
2018-11-20T16:51:50.684Z,20.40
2018-11-20T16:54:37.413Z,20.23
2018-11-20T16:57:22.867Z,20.43
2018-11-20T17:00:12.377Z,20.87
2018-11-20T17:02:59.010Z,21.57
2018-11-20T17:05:51.636Z,20.93
2018-11-20T17:08:53.681Z,21.13
2018-11-20T17:11:30.660Z,19.33
2018-11-20T17:14:17.296Z,20.70
2018-11-20T17:17:01.334Z,19.77
2018-11-20T17:19:34.524Z,20.93
2018-11-20T17:22:33.379Z,20.60
2018-11-20T17:25:25.911Z,20.03
2018-11-20T17:28:15.610Z,19.60
2018-11-20T17:31:01.100Z,21.10
2018-11-20T17:34:05.942Z,19.77
2018-11-20T17:36:50.907Z,20.40
2018-11-20T17:39:36.109Z,20.27
2018-11-20T17:42:34.723Z,22.07
2018-11-20T17:45:14.084Z,38.67
2018-11-20T17:47:57.858Z,43.60
2018-11-20T17:50:50.479Z,26.43
2018-11-20T17:53:35.596Z,22.43
2018-11-20T17:56:28.223Z,23.17
2018-11-20T17:59:11.893Z,22.93
2018-11-20T18:01:50.121Z,27.93
2018-11-20T18:04:24.590Z,29.23
2018-11-20T18:07:14.854Z,24.13
2018-11-20T18:10:01.286Z,21.40
2018-11-20T18:12:49.266Z,22.27
2018-11-20T18:15:42.394Z,21.90
2018-11-20T18:18:28.157Z,21.60
2018-11-20T18:21:12.798Z,23.90
2018-11-20T18:23:57.997Z,22.43
2018-11-20T18:26:44.484Z,23.43
2018-11-20T18:29:21.625Z,21.87
2018-11-20T18:32:07.166Z,19.90
2018-11-20T18:34:52.352Z,21.50
2018-11-20T18:37:50.984Z,21.17
2018-11-20T18:40:37.410Z,21.57
2018-11-20T18:43:36.155Z,22.13
2018-11-20T18:46:28.763Z,22.77
2018-11-20T18:49:14.285Z,21.10
2018-11-20T18:52:03.960Z,23.33
2018-11-20T18:54:50.616Z,22.43
2018-11-20T18:57:36.121Z,22.07
2018-11-20T19:00:21.469Z,20.40
2018-11-20T19:03:17.185Z,21.37
2018-11-20T19:06:15.838Z,20.70
2018-11-20T19:09:00.455Z,21.53
2018-11-20T19:11:52.700Z,21.10
2018-11-20T19:14:42.152Z,22.17
2018-11-20T19:17:44.094Z,22.43
2018-11-20T19:20:29.813Z,22.67
2018-11-20T19:23:34.627Z,22.53
2018-11-20T19:26:33.476Z,22.07
2018-11-20T19:29:23.014Z,22.17
2018-11-20T19:32:18.876Z,32.27
2018-11-20T19:34:58.844Z,23.57
2018-11-20T19:37:57.446Z,23.00
2018-11-20T19:40:53.221Z,24.83
2018-11-20T19:43:38.648Z,23.60
2018-11-20T19:46:16.469Z,23.40
2018-11-20T19:49:15.117Z,22.30
2018-11-20T19:52:14.116Z,21.80
2018-11-20T19:55:06.882Z,21.80
2018-11-20T19:57:54.388Z,29.07
2018-11-20T20:00:41.034Z,41.63
2018-11-20T20:03:28.684Z,43.47
2018-11-20T20:06:21.074Z,40.07
2018-11-20T20:09:13.183Z,54.37
2018-11-20T20:11:58.822Z,41.63
2018-11-20T20:14:45.434Z,29.83
2018-11-20T20:17:35.138Z,28.67
2018-11-20T20:20:12.634Z,24.90
2018-11-20T20:22:56.243Z,25.13
2018-11-20T20:25:52.245Z,25.93
2018-11-20T20:28:39.175Z,23.50
2018-11-20T20:31:42.156Z,23.97
2018-11-20T20:34:27.832Z,23.30
2018-11-20T20:37:23.335Z,23.77
2018-11-20T20:40:22.382Z,22.27
2018-11-20T20:43:07.879Z,21.50
2018-11-20T20:46:00.610Z,21.83
2018-11-20T20:48:53.770Z,20.67
2018-11-20T20:51:55.802Z,20.30
2018-11-20T20:54:40.988Z,20.93
2018-11-20T20:57:27.701Z,20.90
2018-11-20T21:00:13.334Z,20.43
2018-11-20T21:03:02.628Z,20.33
2018-11-20T21:06:04.556Z,21.47
2018-11-20T21:09:09.743Z,22.90
2018-11-20T21:12:02.340Z,27.13
2018-11-20T21:15:01.896Z,27.73
2018-11-20T21:17:47.364Z,27.10
2018-11-20T21:20:39.983Z,32.50
2018-11-20T21:23:25.741Z,32.57
2018-11-20T21:26:14.827Z,27.90
2018-11-20T21:29:12.419Z,34.13
2018-11-20T21:31:57.826Z,38.03
2018-11-20T21:34:43.039Z,39.80
2018-11-20T21:37:28.366Z,36.73
2018-11-20T21:40:13.513Z,42.90
2018-11-20T21:43:09.140Z,42.70
2018-11-20T21:45:54.591Z,37.87
2018-11-20T21:48:38.042Z,45.23
2018-11-20T21:51:24.644Z,40.10
2018-11-20T21:53:57.470Z,37.20
2018-11-20T21:56:42.901Z,30.03
2018-11-20T21:59:35.140Z,23.53
2018-11-20T22:02:20.357Z,23.40
2018-11-20T22:05:05.898Z,21.93
2018-11-20T22:07:51.126Z,22.03
2018-11-20T22:10:40.452Z,22.17
2018-11-20T22:13:27.043Z,20.37
2018-11-20T22:16:12.355Z,19.73
2018-11-20T22:19:04.740Z,19.80
2018-11-20T22:21:51.416Z,19.67
2018-11-20T22:24:47.661Z,19.50
2018-11-20T22:27:49.690Z,19.17
2018-11-20T22:30:45.232Z,20.07
2018-11-20T22:33:33.155Z,20.30
2018-11-20T22:36:29.099Z,19.27
2018-11-20T22:39:14.645Z,20.27
2018-11-20T22:42:07.128Z,20.33
2018-11-20T22:44:46.945Z,21.00
2018-11-20T22:47:42.705Z,20.73
2018-11-20T22:50:35.096Z,21.67
2018-11-20T22:53:20.520Z,20.70
2018-11-20T22:56:09.933Z,22.17
2018-11-20T22:59:05.805Z,20.00
2018-11-20T23:01:58.328Z,19.30
2018-11-20T23:05:02.722Z,20.93
2018-11-20T23:07:44.430Z,18.43
2018-11-20T23:10:13.001Z,20.07
2018-11-20T23:12:39.968Z,20.70
2018-11-20T23:15:09.082Z,19.93
2018-11-20T23:17:36.165Z,19.13
2018-11-20T23:20:03.688Z,19.47
2018-11-20T23:22:30.792Z,19.60
2018-11-20T23:24:57.829Z,19.07
2018-11-20T23:27:24.853Z,20.20
2018-11-20T23:29:51.965Z,19.27
2018-11-20T23:32:19.012Z,21.27
2018-11-20T23:34:46.043Z,18.73
2018-11-20T23:37:13.306Z,19.40
2018-11-20T23:39:40.320Z,17.77
2018-11-20T23:42:07.382Z,20.17
2018-11-20T23:44:34.519Z,18.50
2018-11-20T23:47:01.545Z,20.40
2018-11-20T23:49:28.627Z,19.27
2018-11-20T23:51:55.804Z,19.73
2018-11-20T23:54:22.946Z,20.70
2018-11-20T23:56:49.947Z,21.07
2018-11-20T23:59:17.028Z,19.33
